.
WxDataArchive / Data Records for 2008-05-19
2008-05-18 May 2008 2008-05-20

Data Records for Monday, 19 May 2008

Time	Temp	Chill	HIndex	Humid	Dewpt	 Wind 	HiWind	WindDir	Rain 	Barom 
-----	----	-----	------	-----	-----	------	------	-------	-----	----- 
00:00	42.9	42.9	42.9	70	33.8	0	1	292	0.00	29.627 
00:05	43.3	43.3	43.3	70	34.2	0	1	292	0.00	29.624 
00:10	43.8	43.8	43.8	69	34.3	0	1	292	0.00	29.625 
00:15	44.1	44.1	44.1	68	34.2	0	0	---	0.00	29.624 
00:20	44.2	44.2	44.2	67	33.9	0	1	292	0.00	29.620 
00:25	44.5	44.5	44.5	67	34.2	0	1	292	0.00	29.620 
00:30	44.6	44.6	44.6	67	34.3	0	1	292	0.00	29.615 
00:35	44.8	44.8	44.8	68	34.9	0	1	292	0.00	29.615 
00:40	44.9	44.9	44.9	67	34.6	0	0	---	0.00	29.613 
00:45	44.9	44.9	44.9	67	34.6	0	1	292	0.00	29.613 
00:50	45.1	45.1	45.1	67	34.8	0	1	292	0.00	29.614 
00:55	45.1	45.1	45.1	67	34.8	0	1	292	0.00	29.613 
01:00	45.2	45.2	45.2	67	34.9	0	1	292	0.00	29.613 
01:05	45.2	45.2	45.2	67	34.9	0	1	292	0.00	29.613 
01:10	45.4	45.4	45.4	67	35.1	0	1	292	0.00	29.613 
01:15	45.5	45.5	45.5	66	34.8	0	1	292	0.00	29.614 
01:20	45.5	45.5	45.5	66	34.8	0	0	---	0.00	29.615 
01:25	45.7	45.7	45.7	66	35.0	0	0	---	0.00	29.616 
01:30	45.7	45.7	45.7	66	35.0	0	0	---	0.00	29.618 
01:35	45.7	45.7	45.7	67	35.4	0	0	---	0.00	29.622 
01:40	45.7	45.7	45.7	68	35.8	0	0	---	0.00	29.622 
01:45	45.4	45.4	45.4	69	35.8	0	0	---	0.00	29.623 
01:50	45.2	45.2	45.2	69	35.6	0	0	---	0.00	29.624 
01:55	45.2	45.2	45.2	69	35.6	0	0	---	0.00	29.625 
02:00	45.1	45.1	45.1	70	35.9	0	0	---	0.00	29.625 
02:05	45.1	45.1	45.1	70	35.9	0	0	---	0.00	29.627 
02:10	45.1	45.1	45.1	71	36.3	0	0	---	0.00	29.626 
02:15	44.9	44.9	44.9	71	36.1	0	0	---	0.00	29.626 
02:20	44.9	44.9	44.9	71	36.1	0	0	---	0.00	29.626 
02:25	44.9	44.9	44.9	72	36.4	0	0	---	0.00	29.626 
02:30	44.8	44.8	44.8	72	36.3	0	0	---	0.00	29.626 
02:35	44.5	44.5	44.5	72	36.0	0	1	292	0.00	29.627 
02:40	44.3	44.3	44.3	73	36.2	0	0	---	0.00	29.628 
02:45	44.1	44.1	44.1	73	36.0	0	0	---	0.00	29.627 
02:50	43.8	43.8	43.8	73	35.7	0	0	---	0.00	29.627 
02:55	43.5	43.5	43.5	74	35.8	0	0	---	0.00	29.628 
03:00	43.2	43.2	43.2	75	35.8	0	0	---	0.00	29.629 
03:05	42.8	42.8	42.8	76	35.8	0	0	---	0.00	29.627 
03:10	42.5	42.5	42.5	76	35.5	0	0	---	0.00	29.627 
03:15	42.2	42.2	42.2	77	35.5	0	0	---	0.00	29.629 
03:20	41.8	41.8	41.8	78	35.5	0	0	---	0.00	29.629 
03:25	41.5	41.5	41.5	79	35.5	0	0	---	0.00	29.628 
03:30	41.1	41.1	41.1	81	35.7	0	0	---	0.00	29.629 
03:35	40.9	40.9	40.9	81	35.5	0	0	---	0.00	29.629 
03:40	40.6	40.6	40.6	82	35.5	0	0	---	0.00	29.629 
03:45	40.5	40.5	40.5	82	35.4	0	0	---	0.00	29.629 
03:50	40.5	40.5	40.5	84	36.1	0	0	---	0.00	29.630 
03:55	40.6	40.6	40.6	84	36.2	0	0	---	0.00	29.630 
04:00	40.6	40.6	40.6	85	36.4	0	0	---	0.00	29.631 
04:05	40.6	40.6	40.6	85	36.4	0	0	---	0.00	29.633 
04:10	40.8	40.8	40.8	86	36.9	0	0	---	0.00	29.634 
04:15	40.8	40.8	40.8	86	36.9	0	0	---	0.00	29.633 
04:20	40.8	40.8	40.8	86	36.9	0	0	---	0.00	29.636 
04:25	40.6	40.6	40.6	86	36.7	0	0	---	0.00	29.638 
04:30	40.5	40.5	40.5	86	36.6	0	0	---	0.00	29.639 
04:35	40.3	40.3	40.3	86	36.5	0	0	---	0.00	29.639 
04:40	40.2	40.2	40.2	86	36.4	0	0	---	0.00	29.642 
04:45	40.1	40.1	40.1	86	36.3	0	0	---	0.00	29.643 
04:50	39.9	39.9	39.9	87	36.4	0	0	---	0.00	29.645 
04:55	39.8	39.8	39.8	87	36.3	0	0	---	0.00	29.645 
05:00	39.6	39.6	39.6	87	36.1	0	0	---	0.00	29.645 
05:05	39.5	39.5	39.5	88	36.2	0	0	---	0.00	29.648 
05:10	39.3	39.3	39.3	88	36.0	0	0	---	0.00	29.648 
05:15	39.2	39.2	39.2	88	35.9	0	0	---	0.00	29.648 
05:20	38.9	38.9	38.9	88	35.7	0	0	---	0.00	29.648 
05:25	38.8	38.8	38.8	88	35.6	0	0	---	0.00	29.648 
05:30	38.5	38.5	38.5	88	35.3	0	0	---	0.00	29.649 
05:35	38.5	38.5	38.5	89	35.5	0	0	---	0.00	29.651 
05:40	38.3	38.3	38.3	89	35.3	0	0	---	0.00	29.653 
05:45	38.2	38.2	38.2	89	35.2	0	0	---	0.00	29.656 
05:50	38.2	38.2	38.2	90	35.5	0	0	---	0.00	29.658 
05:55	38.3	38.3	38.3	90	35.6	0	0	---	0.00	29.660 
06:00	38.5	38.5	38.5	91	36.1	0	0	---	0.00	29.660 
06:05	38.5	38.5	38.5	91	36.1	0	0	---	0.00	29.663 
06:10	38.5	38.5	38.5	91	36.1	0	0	---	0.00	29.665 
06:15	38.9	38.9	38.9	92	36.8	0	0	---	0.00	29.666 
06:20	39.5	39.5	39.5	92	37.4	0	0	---	0.00	29.668 
06:25	40.1	40.1	40.1	92	38.0	0	0	---	0.00	29.672 
06:30	40.8	40.8	40.8	92	38.7	0	0	---	0.00	29.674 
06:35	41.6	41.6	41.6	92	39.5	0	0	---	0.00	29.675 
06:40	42.5	42.5	42.5	90	39.8	0	1	292	0.00	29.676 
06:45	43.3	43.3	43.3	88	40.0	0	1	292	0.00	29.677 
06:50	44.2	44.2	44.2	85	40.0	0	1	292	0.00	29.678 
06:55	44.9	44.9	44.9	81	39.4	0	1	292	0.00	29.677 
07:00	45.5	45.5	45.5	80	39.7	0	1	292	0.00	29.677 
07:05	46.1	46.1	46.1	77	39.3	0	1	292	0.00	29.680 
07:10	46.5	46.5	46.5	77	39.7	0	2	292	0.00	29.679 
07:15	47.0	47.0	47.0	75	39.5	0	2	292	0.00	29.680 
07:20	47.4	47.4	47.4	75	39.9	0	2	292	0.00	29.681 
07:25	48.0	48.0	48.0	74	40.1	0	2	292	0.00	29.682 
07:30	48.3	48.3	48.3	72	39.7	0	1	292	0.00	29.683 
07:35	48.8	48.8	48.8	72	40.2	0	1	292	0.00	29.683 
07:40	49.1	49.1	49.1	69	39.4	0	2	292	0.00	29.685 
07:45	49.1	49.1	49.1	67	38.6	0	1	292	0.00	29.689 
07:50	49.6	49.6	49.6	69	39.9	0	2	292	0.00	29.687 
07:55	49.9	49.9	49.9	68	39.8	0	2	292	0.00	29.689 
08:00	50.4	50.4	50.4	66	39.5	1	2	292	0.00	29.690 
08:05	50.7	50.7	50.7	66	39.8	0	2	292	0.00	29.692 
08:10	51.0	51.0	51.0	64	39.3	1	3	292	0.00	29.692 
08:15	51.6	51.6	51.6	62	39.0	1	2	292	0.00	29.692 
08:20	51.7	51.7	51.7	60	38.3	1	6	292	0.00	29.691 
08:25	51.9	51.9	51.9	61	38.9	1	3	248	0.00	29.691 
08:30	52.2	52.2	52.2	60	38.7	0	2	270	0.00	29.692 
08:35	52.3	52.3	52.3	60	38.8	1	2	292	0.00	29.691 
08:40	52.5	52.5	52.5	58	38.2	1	5	315	0.00	29.692 
08:45	52.6	52.6	52.6	58	38.2	1	2	292	0.00	29.694 
08:50	53.3	53.3	53.3	55	37.5	1	4	248	0.00	29.697 
08:55	53.6	53.6	53.6	55	37.8	1	4	248	0.00	29.696 
09:00	53.3	53.3	53.3	51	35.6	2	4	248	0.00	29.698 
09:05	53.5	53.5	53.5	52	36.3	2	4	315	0.00	29.700 
09:10	53.6	53.6	53.6	53	36.9	1	2	338	0.00	29.698 
09:15	54.1	54.1	54.1	52	36.9	1	5	270	0.00	29.698 
09:20	54.2	54.2	54.2	50	36.0	2	3	338	0.00	29.698 
09:25	54.2	54.2	54.2	50	36.0	1	3	315	0.00	29.696 
09:30	54.5	54.5	54.5	48	35.2	2	5	270	0.00	29.697 
09:35	54.7	54.7	54.7	46	34.3	2	5	292	0.00	29.693 
09:40	54.5	54.5	54.5	45	33.6	2	5	338	0.00	29.693 
09:45	54.4	54.4	54.4	50	36.2	2	4	248	0.00	29.695 
09:50	54.7	54.7	54.7	49	35.9	2	5	270	0.00	29.694 
09:55	54.5	54.5	54.5	45	33.6	2	5	270	0.00	29.692 
10:00	55.0	55.0	55.0	46	34.6	1	4	315	0.00	29.691 
10:05	55.4	55.4	55.4	45	34.4	2	5	315	0.00	29.694 
10:10	56.0	56.0	56.0	43	33.8	1	4	270	0.00	29.693 
10:15	56.2	56.2	56.2	43	34.0	2	9	248	0.00	29.694 
10:20	56.3	56.3	56.3	45	35.2	2	6	338	0.00	29.693 
10:25	56.5	56.5	56.5	43	34.3	2	8	315	0.00	29.693 
10:30	56.3	56.3	56.3	44	34.7	2	5	338	0.00	29.692 
10:35	56.5	56.5	56.5	42	33.7	1	4	315	0.00	29.692 
10:40	56.7	56.7	56.7	42	33.9	2	5	315	0.00	29.689 
10:45	57.3	57.3	57.3	43	35.0	2	4	292	0.00	29.691 
10:50	57.2	57.2	57.2	41	33.7	2	6	248	0.00	29.690 
10:55	57.2	57.2	57.2	39	32.5	3	5	270	0.00	29.688 
11:00	56.7	56.7	56.7	41	33.3	2	6	315	0.00	29.686 
11:05	57.2	57.2	57.2	41	33.7	2	5	248	0.00	29.676 
11:10	57.2	57.2	57.2	41	33.7	3	7	315	0.00	29.676 
11:15	57.8	57.8	57.8	42	34.9	2	5	315	0.00	29.676 
11:20	58.0	58.0	58.0	38	32.5	2	5	315	0.00	29.675 
11:25	58.0	58.0	58.0	41	34.4	3	5	270	0.00	29.676 
11:30	58.0	58.0	58.0	36	31.2	2	5	248	0.00	29.675 
11:35	58.3	58.3	58.3	42	35.3	2	5	270	0.00	29.677 
11:40	58.7	58.7	58.7	40	34.4	2	6	270	0.00	29.674 
11:45	58.6	58.6	58.6	36	31.7	2	6	338	0.00	29.673 
11:50	58.4	58.4	58.4	35	30.9	2	5	270	0.00	29.673 
11:55	58.1	58.1	58.1	36	31.3	1	3	338	0.00	29.673 
12:00	59.0	59.0	59.0	38	33.4	2	9	248	0.00	29.670 
12:05	59.0	59.0	59.0	36	32.1	2	6	315	0.00	29.667 
12:10	59.5	59.5	59.5	37	33.2	2	6	270	0.00	29.660 
12:15	59.8	59.8	59.8	35	32.1	2	4	248	0.00	29.659 
12:20	59.5	59.5	59.5	37	33.2	2	4	338	0.00	29.663 
12:25	59.6	59.6	59.6	33	30.5	1	4	338	0.00	29.660 
12:30	59.9	59.9	59.9	35	32.2	2	7	338	0.00	29.659 
12:35	59.8	59.8	59.8	35	32.1	2	6	270	0.00	29.659 
12:40	59.5	59.5	59.5	34	31.1	2	5	315	0.00	29.656 
12:45	59.2	59.2	59.2	35	31.6	2	4	315	0.00	29.656 
12:50	59.3	59.3	59.3	34	30.9	2	4	270	0.00	29.656 
12:55	59.6	59.6	59.6	36	32.6	1	6	270	0.00	29.656 
13:00	59.8	59.8	59.8	31	29.1	3	6	270	0.00	29.657 
13:05	59.5	59.5	59.5	34	31.1	2	4	315	0.00	29.658 
13:10	59.2	59.2	59.2	32	29.4	2	5	270	0.00	29.657 
13:15	59.0	59.0	59.0	34	30.7	1	3	292	0.00	29.656 
13:20	59.0	59.0	59.0	35	31.4	1	5	338	0.00	29.657 
13:25	59.2	59.2	59.2	38	33.6	1	4	270	0.00	29.656 
13:30	58.9	58.9	58.9	35	31.3	2	6	315	0.00	29.656 
13:35	58.9	58.9	58.9	37	32.7	1	4	315	0.00	29.654 
13:40	59.0	59.0	59.0	34	30.7	2	6	270	0.00	29.653 
13:45	59.0	59.0	59.0	33	29.9	2	5	270	0.00	29.651 
13:50	58.9	58.9	58.9	35	31.3	2	4	315	0.00	29.648 
13:55	59.0	59.0	59.0	34	30.7	1	3	292	0.00	29.644 
14:00	59.3	59.3	59.3	37	33.0	1	2	315	0.00	29.644 
14:05	60.4	60.4	60.4	34	31.9	1	4	315	0.00	29.645 
14:10	60.1	60.1	60.1	36	33.1	1	5	338	0.00	29.653 
14:15	60.7	60.7	60.7	34	32.2	2	4	338	0.00	29.648 
14:20	61.0	61.0	61.0	34	32.4	2	5	315	0.00	29.655 
14:25	61.3	61.3	61.3	35	33.4	2	4	292	0.00	29.649 
14:30	61.5	61.5	61.5	35	33.6	2	4	270	0.00	29.642 
14:35	62.0	62.0	62.0	32	31.8	1	4	315	0.00	29.639 
14:40	62.3	62.3	62.3	35	34.3	1	3	248	0.00	29.632 
14:45	62.4	62.4	62.4	33	32.9	1	4	315	0.00	29.635 
14:50	62.9	62.9	62.9	33	33.4	2	5	270	0.00	29.634 
14:55	62.7	62.7	62.7	34	33.9	1	3	292	0.00	29.625 
15:00	63.1	63.1	63.1	33	33.5	2	5	270	0.00	29.623 
15:05	62.7	62.7	62.7	30	30.8	1	4	292	0.00	29.625 
15:10	62.3	62.3	62.3	29	29.6	2	5	292	0.00	29.633 
15:15	62.0	62.0	62.0	33	32.6	1	3	315	0.00	29.630 
15:20	62.3	62.3	62.3	32	32.1	2	4	248	0.00	29.629 
15:25	62.4	62.4	62.4	34	33.7	2	6	248	0.00	29.629 
15:30	62.6	62.6	62.6	30	30.7	2	5	248	0.00	29.628 
15:35	62.9	62.9	62.9	31	31.8	1	4	248	0.00	29.623 
15:40	62.7	62.7	62.7	29	30.0	2	6	270	0.00	29.621 
15:45	62.7	62.7	62.7	31	31.6	1	4	270	0.00	29.616 
15:50	62.9	62.9	62.9	28	29.3	1	4	270	0.00	29.617 
15:55	63.1	63.1	63.1	30	31.2	1	3	248	0.00	29.611 
16:00	62.7	62.7	62.7	30	30.8	1	2	248	0.00	29.609 
16:05	62.0	62.0	62.0	30	30.2	1	4	315	0.00	29.616 
16:10	61.3	61.3	61.3	31	30.4	2	5	248	0.00	29.622 
16:15	61.0	61.0	61.0	32	30.9	1	2	270	0.00	29.626 
16:20	61.2	61.2	61.2	33	31.9	1	4	248	0.00	29.627 
16:25	61.6	61.6	61.6	31	30.7	1	5	248	0.00	29.617 
16:30	62.1	62.1	62.1	32	31.9	1	5	248	0.00	29.617 
16:35	62.1	62.1	62.1	31	31.1	2	4	248	0.00	29.619 
16:40	61.6	61.6	61.6	30	29.9	1	5	248	0.00	29.620 
16:45	61.6	61.6	61.6	31	30.7	1	5	248	0.00	29.612 
16:50	62.0	62.0	62.0	31	31.0	1	3	248	0.00	29.612 
16:55	62.1	62.1	62.1	33	32.7	1	4	248	0.00	29.611 
17:00	62.3	62.3	62.3	32	32.1	0	2	225	0.00	29.609 
17:05	62.4	62.4	62.4	30	30.6	1	3	248	0.00	29.609 
17:10	62.1	62.1	62.1	32	31.9	2	5	292	0.00	29.602 
17:15	62.0	62.0	62.0	29	29.4	1	5	248	0.00	29.599 
17:20	61.6	61.6	61.6	30	29.9	2	4	248	0.00	29.600 
17:25	61.3	61.3	61.3	31	30.4	1	5	248	0.00	29.605 
17:30	60.9	60.9	60.9	30	29.3	1	4	248	0.00	29.601 
17:35	60.5	60.5	60.5	31	29.7	1	5	248	0.00	29.597 
17:40	60.4	60.4	60.4	31	29.6	1	3	248	0.00	29.597 
17:45	60.4	60.4	60.4	30	28.8	0	1	292	0.00	29.598 
17:50	60.4	60.4	60.4	31	29.6	0	1	292	0.00	29.598 
17:55	60.2	60.2	60.2	31	29.5	0	1	292	0.00	29.600 
18:00	60.1	60.1	60.1	30	28.6	0	1	292	0.00	29.599 
18:05	60.1	60.1	60.1	33	30.9	0	0	---	0.00	29.589 
18:10	59.9	59.9	59.9	35	32.2	0	0	---	0.00	29.592 
18:15	59.9	59.9	59.9	34	31.5	0	1	292	0.00	29.596 
18:20	59.9	59.9	59.9	35	32.2	0	2	292	0.00	29.595 
18:25	59.9	59.9	59.9	33	30.7	0	1	248	0.00	29.594 
18:30	59.6	59.6	59.6	31	28.9	1	3	248	0.00	29.592 
18:35	59.5	59.5	59.5	32	29.6	0	2	248	0.00	29.592 
18:40	59.3	59.3	59.3	32	29.4	0	1	248	0.00	29.594 
18:45	59.2	59.2	59.2	33	30.1	0	1	248	0.00	29.593 
18:50	59.0	59.0	59.0	33	29.9	0	1	248	0.00	29.595 
18:55	59.0	59.0	59.0	32	29.2	0	1	248	0.00	29.592 
19:00	58.9	58.9	58.9	34	30.6	0	1	248	0.00	29.592 
19:05	58.7	58.7	58.7	32	28.9	0	3	248	0.00	29.589 
19:10	58.7	58.7	58.7	34	30.4	0	1	248	0.00	29.589 
19:15	58.4	58.4	58.4	34	30.1	0	1	248	0.00	29.590 
19:20	58.3	58.3	58.3	33	29.3	0	1	248	0.00	29.590 
19:25	58.1	58.1	58.1	33	29.2	0	1	248	0.00	29.591 
19:30	58.0	58.0	58.0	34	29.8	0	1	248	0.00	29.594 
19:35	57.8	57.8	57.8	34	29.6	0	1	248	0.00	29.594 
19:40	57.6	57.6	57.6	36	30.8	0	1	248	0.00	29.595 
19:45	57.3	57.3	57.3	36	30.6	0	0	---	0.00	29.596 
19:50	57.0	57.0	57.0	37	31.0	0	0	---	0.00	29.600 
19:55	56.7	56.7	56.7	38	31.4	0	0	---	0.00	29.604 
20:00	56.5	56.5	56.5	37	30.5	0	0	---	0.00	29.606 
20:05	56.2	56.2	56.2	39	31.6	0	0	---	0.00	29.604 
20:10	55.9	55.9	55.9	40	31.9	0	0	---	0.00	29.599 
20:15	55.6	55.6	55.6	41	32.3	0	0	---	0.00	29.592 
20:20	55.3	55.3	55.3	42	32.6	0	0	---	0.00	29.590 
20:25	55.1	55.1	55.1	44	33.6	0	0	---	0.00	29.590 
20:30	54.8	54.8	54.8	45	33.9	0	0	---	0.00	29.592 
20:35	54.7	54.7	54.7	46	34.3	0	0	---	0.00	29.593 
20:40	54.5	54.5	54.5	46	34.1	0	0	---	0.00	29.595 
20:45	54.2	54.2	54.2	49	35.5	0	1	248	0.00	29.592 
20:50	54.1	54.1	54.1	49	35.4	0	0	---	0.00	29.591 
20:55	53.9	53.9	53.9	49	35.2	0	0	---	0.00	29.592 
21:00	53.9	53.9	53.9	49	35.2	0	1	248	0.00	29.591 
21:05	53.9	53.9	53.9	50	35.7	0	0	---	0.00	29.589 
21:10	53.9	53.9	53.9	49	35.2	0	0	---	0.00	29.588 
21:15	53.9	53.9	53.9	49	35.2	0	0	---	0.00	29.583 
21:20	53.9	53.9	53.9	48	34.7	0	0	---	0.00	29.583 
21:25	53.9	53.9	53.9	50	35.7	0	0	---	0.00	29.590 
21:30	53.8	53.8	53.8	49	35.1	0	1	248	0.00	29.593 
21:35	53.8	53.8	53.8	50	35.6	0	1	248	0.00	29.593 
21:40	53.9	53.9	53.9	49	35.2	0	0	---	0.00	29.599 
21:45	53.9	53.9	53.9	49	35.2	0	0	---	0.00	29.594 
21:50	53.9	53.9	53.9	49	35.2	0	1	248	0.00	29.596 
21:55	53.9	53.9	53.9	49	35.2	0	0	---	0.00	29.596 
22:00	53.8	53.8	53.8	49	35.1	0	0	---	0.00	29.599 
22:05	53.8	53.8	53.8	48	34.6	0	0	---	0.00	29.591 
22:10	53.8	53.8	53.8	46	33.5	0	0	---	0.00	29.588 
22:15	53.8	53.8	53.8	46	33.5	0	1	248	0.00	29.587 
22:20	53.8	53.8	53.8	46	33.5	0	1	248	0.00	29.593 
22:25	53.8	53.8	53.8	46	33.5	0	2	248	0.00	29.594 
22:30	53.6	53.6	53.6	47	33.9	0	1	248	0.00	29.602 
22:35	53.5	53.5	53.5	48	34.3	0	1	248	0.00	29.592 
22:40	53.3	53.3	53.3	48	34.1	0	2	248	0.00	29.588 
22:45	53.2	53.2	53.2	48	34.0	0	1	248	0.00	29.587 
22:50	53.1	53.1	53.1	47	33.4	0	1	248	0.00	29.584 
22:55	52.9	52.9	52.9	49	34.3	0	1	248	0.00	29.585 
23:00	52.8	52.8	52.8	47	33.1	0	1	248	0.00	29.586 
23:05	52.6	52.6	52.6	47	32.9	0	1	248	0.00	29.586 
23:10	52.5	52.5	52.5	47	32.9	0	1	248	0.00	29.586 
23:15	52.3	52.3	52.3	47	32.7	0	1	248	0.00	29.588 
23:20	52.3	52.3	52.3	47	32.7	0	1	248	0.00	29.585 
23:25	52.2	52.2	52.2	47	32.6	0	0	---	0.00	29.581 
23:30	52.2	52.2	52.2	48	33.1	0	1	248	0.00	29.581 
23:35	52.0	52.0	52.0	48	32.9	0	0	---	0.00	29.583 
23:40	52.0	52.0	52.0	49	33.4	0	0	---	0.00	29.580 
23:45	51.9	51.9	51.9	47	32.3	0	0	---	0.00	29.580 
23:50	51.7	51.7	51.7	49	33.2	0	0	---	0.00	29.576 
23:55	51.7	51.7	51.7	48	32.6	0	0	---	0.00	29.575 

CoCoRaHS
IN-AL-39
A2 Web Hosting
Creative Commons License
GoDaddy
Look for:

loaded 2017-12-13 02:57:06 • last modified 2010-11-18 10:43:29
Privacy PolicyDisclaimer
• wx.awcolley.com is powered by PmWiki v.2002016 •
• all content (unless otherwise noted) © 2017 A W Colley